Time;durP1;ratioP1;P1;durP2;ratioP2;P2;SDS_P1;SDS_P2;PMS_P1;PMS_P2;Temp;Humidity;BMP_temperature;BMP_pressure;BME280_temperature;BME280_humidity;BME280_pressure;Samples;Min_cycle;Max_cycle;Signal;HPM_P1;HPM_P2
2023/03/04 00:02:16;;;;;;;20.92;8.35;;;4.80;1.00;;;;;;5101205;28;20424;-62
2023/03/04 00:04:43;;;;;;;25.70;8.73;;;4.90;1.00;;;;;;5101572;28;20549;-62
2023/03/04 00:07:11;;;;;;;22.00;8.55;;;4.90;1.00;;;;;;5099738;28;20460;-61
2023/03/04 00:09:38;;;;;;;25.75;8.95;;;4.90;1.00;;;;;;5100109;28;20413;-62
2023/03/04 00:12:06;;;;;;;20.25;8.82;;;4.90;1.00;;;;;;5098874;28;20962;-62
2023/03/04 00:14:34;;;;;;;22.70;8.93;;;4.90;1.00;;;;;;5099490;28;20746;-62
2023/03/04 00:17:03;;;;;;;20.73;8.70;;;5.00;1.00;;;;;;5098440;28;20840;-62
2023/03/04 00:19:29;;;;;;;21.95;9.32;;;5.10;1.00;;;;;;5101344;28;20787;-61
2023/03/04 00:21:56;;;;;;;19.63;9.02;;;5.10;1.00;;;;;;5101424;28;20412;-62
2023/03/04 00:24:23;;;;;;;20.50;8.77;;;5.10;1.00;;;;;;5099629;28;20410;-61
2023/03/04 00:26:50;;;;;;;20.10;8.82;;;5.20;1.00;;;;;;5100188;28;20788;-62
2023/03/04 00:29:17;;;;;;;19.83;9.13;;;5.30;1.00;;;;;;5102010;28;20408;-62
2023/03/04 00:31:45;;;;;;;19.70;9.15;;;5.30;1.00;;;;;;5099807;28;20834;-61
2023/03/04 00:34:11;;;;;;;18.75;8.77;;;5.20;1.00;;;;;;5099374;28;20491;-62
2023/03/04 00:36:38;;;;;;;20.65;8.43;;;5.20;1.00;;;;;;5095437;28;20867;-62
2023/03/04 00:39:05;;;;;;;19.25;8.90;;;5.30;1.00;;;;;;5100177;28;20421;-61
2023/03/04 00:41:32;;;;;;;19.77;8.88;;;5.30;1.00;;;;;;5101753;28;20415;-62
2023/03/04 00:43:58;;;;;;;16.98;8.50;;;5.10;1.00;;;;;;5097311;28;20406;-62
2023/03/04 00:46:25;;;;;;;19.08;8.38;;;5.10;1.00;;;;;;5099555;28;20475;-62
2023/03/04 00:48:53;;;;;;;22.47;8.63;;;5.20;1.00;;;;;;5100026;28;20408;-62
2023/03/04 00:51:20;;;;;;;16.00;7.55;;;5.20;1.00;;;;;;5105011;28;20404;-62
2023/03/04 00:53:47;;;;;;;17.73;7.27;;;5.30;1.00;;;;;;5101489;28;20410;-62
2023/03/04 00:56:13;;;;;;;18.83;7.78;;;5.30;1.00;;;;;;5100788;28;20415;-62
2023/03/04 00:58:40;;;;;;;19.92;7.57;;;5.30;1.00;;;;;;5101774;28;20457;-62
2023/03/04 01:01:07;;;;;;;20.23;7.95;;;5.30;1.00;;;;;;5095861;28;20413;-62
2023/03/04 01:03:33;;;;;;;17.03;7.40;;;5.40;1.00;;;;;;5100123;28;20410;-62
2023/03/04 01:06:01;;;;;;;18.23;7.53;;;5.40;1.00;;;;;;5101457;28;20461;-62
2023/03/04 01:08:28;;;;;;;18.02;7.40;;;5.50;1.00;;;;;;5100054;28;22115;-61
2023/03/04 01:10:55;;;;;;;14.55;7.53;;;5.50;1.00;;;;;;5099455;28;20410;-60
2023/03/04 01:13:21;;;;;;;16.40;7.87;;;5.50;1.00;;;;;;5099569;28;20439;-60
2023/03/04 01:15:48;;;;;;;17.67;8.25;;;5.50;1.00;;;;;;5099359;28;20422;-61
2023/03/04 01:18:15;;;;;;;18.65;8.18;;;5.50;1.00;;;;;;5101082;28;20909;-61
2023/03/04 01:20:42;;;;;;;16.45;7.72;;;5.50;1.00;;;;;;5100228;28;20463;-61
2023/03/04 01:23:10;;;;;;;19.20;8.15;;;5.50;1.00;;;;;;5098807;28;20417;-61
2023/03/04 01:25:37;;;;;;;15.48;8.18;;;5.50;1.00;;;;;;5096023;28;20410;-61
2023/03/04 01:28:03;;;;;;;17.15;7.53;;;5.60;1.00;;;;;;5099104;28;20410;-61
2023/03/04 01:30:30;;;;;;;20.63;7.65;;;5.60;1.00;;;;;;5101032;28;20948;-61
2023/03/04 01:32:57;;;;;;;20.33;7.90;;;5.60;1.00;;;;;;5101244;28;20412;-61
2023/03/04 01:35:24;;;;;;;18.20;7.68;;;5.60;1.00;;;;;;5106000;28;20420;-61
2023/03/04 01:37:51;;;;;;;17.20;7.55;;;5.50;1.00;;;;;;5102429;28;20916;-61
2023/03/04 01:40:19;;;;;;;16.10;7.60;;;5.50;1.00;;;;;;5102589;28;20801;-61
2023/03/04 01:42:46;;;;;;;17.40;7.00;;;5.50;1.00;;;;;;5102734;28;20457;-62
2023/03/04 01:45:15;;;;;;;16.50;4.97;;;5.60;1.00;;;;;;5101241;28;20756;-60
2023/03/04 01:47:47;;;;;;;20.05;5.72;;;5.30;1.00;;;;;;5101712;28;20410;-61
2023/03/04 01:50:19;;;;;;;18.38;5.80;;;5.20;99.90;;;;;;5102894;28;20418;-61
2023/03/04 01:52:45;;;;;;;20.15;5.68;;;5.10;1.00;;;;;;5098263;28;20463;-61
2023/03/04 01:55:16;;;;;;;14.60;5.97;;;5.10;1.00;;;;;;5102994;28;20512;-61
2023/03/04 01:57:46;;;;;;;15.15;5.28;;;5.10;1.00;;;;;;5104402;28;20896;-61
2023/03/04 02:00:30;;;;;;;17.35;5.68;;;5.10;1.00;;;;;;5103668;28;20915;-61
2023/03/04 02:02:59;;;;;;;20.88;6.20;;;5.10;1.00;;;;;;5102044;28;20408;-61
2023/03/04 02:05:26;;;;;;;16.50;6.20;;;5.20;1.00;;;;;;5101766;28;20406;-61
2023/03/04 02:07:55;;;;;;;20.48;6.90;;;5.10;1.00;;;;;;5107301;28;20413;-61
2023/03/04 02:10:22;;;;;;;20.73;6.32;;;5.00;1.00;;;;;;5119539;28;20404;-61
2023/03/04 02:12:50;;;;;;;18.08;6.00;;;5.00;1.00;;;;;;5113116;28;20405;-61
2023/03/04 02:15:17;;;;;;;17.20;5.80;;;5.10;1.00;;;;;;5104036;28;20491;-61
2023/03/04 02:17:43;;;;;;;17.87;5.70;;;5.20;1.00;;;;;;5101962;28;20424;-61
2023/03/04 02:20:25;;;;;;;18.05;5.88;;;5.10;1.00;;;;;;5102356;28;20417;-60
2023/03/04 02:23:00;;;;;;;20.42;5.72;;;5.10;1.00;;;;;;5101055;28;20408;-59
2023/03/04 02:25:33;;;;;;;18.90;5.13;;;5.00;1.00;;;;;;5098921;28;20463;-61
2023/03/04 02:28:01;;;;;;;20.95;5.32;;;5.00;1.00;;;;;;5101276;27;20948;-62
2023/03/04 02:30:28;;;;;;;18.38;5.03;;;5.00;1.00;;;;;;5102717;28;20408;-61
2023/03/04 02:32:54;;;;;;;19.77;4.95;;;5.00;1.00;;;;;;5103517;28;20415;-62
2023/03/04 02:35:21;;;;;;;14.83;4.37;;;5.00;1.00;;;;;;5103732;28;20490;-61
2023/03/04 02:37:48;;;;;;;19.65;5.55;;;5.00;1.00;;;;;;5102725;28;20424;-61
2023/03/04 02:40:18;;;;;;;15.57;4.82;;;4.90;1.00;;;;;;5100831;28;20467;-61
2023/03/04 02:42:45;;;;;;;17.42;4.93;;;5.00;1.00;;;;;;5103544;28;20802;-61
2023/03/04 02:45:40;;;;;;;18.92;5.50;;;5.00;1.00;;;;;;5100355;28;20471;-61
2023/03/04 02:48:07;;;;;;;22.60;5.68;;;4.80;1.00;;;;;;5098527;28;20402;-61
2023/03/04 02:50:37;;;;;;;26.08;5.82;;;4.70;1.00;;;;;;5101406;28;20409;-61
2023/03/04 02:53:04;;;;;;;19.55;5.00;;;4.80;1.00;;;;;;5097652;28;20913;-61
2023/03/04 02:55:31;;;;;;;17.55;5.07;;;4.90;1.00;;;;;;5101603;28;20413;-60
2023/03/04 02:57:57;;;;;;;18.43;4.27;;;4.80;1.00;;;;;;5103496;28;20416;-61
2023/03/04 03:00:24;;;;;;;17.83;4.78;;;4.90;1.00;;;;;;5101560;28;20479;-61
2023/03/04 03:02:52;;;;;;;17.15;4.57;;;4.90;1.00;;;;;;5100805;28;20443;-60
2023/03/04 03:05:20;;;;;;;16.42;5.25;;;5.00;1.00;;;;;;5102501;28;20412;-61
2023/03/04 03:07:46;;;;;;;19.15;5.13;;;4.80;1.00;;;;;;5102460;28;20951;-60
2023/03/04 03:10:13;;;;;;;19.80;5.47;;;4.80;1.00;;;;;;5100012;28;20413;-61
2023/03/04 03:12:40;;;;;;;17.15;5.07;;;4.80;1.00;;;;;;5101848;28;20413;-61
2023/03/04 03:15:08;;;;;;;18.13;5.70;;;4.80;1.00;;;;;;5100442;28;20873;-60
2023/03/04 03:17:35;;;;;;;21.17;5.80;;;4.90;1.00;;;;;;5099101;28;20408;-61
2023/03/04 03:20:03;;;;;;;22.48;5.90;;;4.80;1.00;;;;;;5102416;28;20438;-61
2023/03/04 03:22:30;;;;;;;21.55;5.75;;;4.80;1.00;;;;;;5096645;28;20445;-61
2023/03/04 03:24:56;;;;;;;20.87;5.53;;;4.70;1.00;;;;;;5101111;28;20406;-62
2023/03/04 03:27:23;;;;;;;15.48;4.93;;;4.80;1.00;;;;;;5102634;28;20415;-61
2023/03/04 03:29:50;;;;;;;15.98;5.00;;;4.80;1.00;;;;;;5101103;28;20474;-62
2023/03/04 03:32:16;;;;;;;17.52;5.40;;;4.80;1.00;;;;;;5100182;28;20900;-61
2023/03/04 03:34:43;;;;;;;19.35;5.68;;;4.90;1.00;;;;;;5096518;28;20415;-60
2023/03/04 03:37:11;;;;;;;17.35;5.20;;;4.90;1.00;;;;;;5100209;28;20408;-61
2023/03/04 03:39:38;;;;;;;17.60;5.03;;;4.80;1.00;;;;;;5100030;28;20418;-61
2023/03/04 03:42:04;;;;;;;13.82;4.53;;;4.80;1.00;;;;;;5104580;28;20413;-62
2023/03/04 03:44:31;;;;;;;18.50;5.27;;;4.80;1.00;;;;;;5098057;28;20408;-61
2023/03/04 03:46:58;;;;;;;18.67;4.70;;;4.90;1.00;;;;;;5097920;28;20414;-62
2023/03/04 03:49:25;;;;;;;15.35;4.70;;;4.90;1.00;;;;;;5100762;28;20418;-62
2023/03/04 03:51:52;;;;;;;16.38;4.30;;;4.90;1.00;;;;;;5102239;28;20495;-61
2023/03/04 03:54:20;;;;;;;13.43;4.40;;;4.80;1.00;;;;;;5100638;28;20455;-62
2023/03/04 03:56:47;;;;;;;16.60;4.40;;;4.70;1.00;;;;;;5099546;28;20455;-61
2023/03/04 03:59:13;;;;;;;15.15;4.25;;;4.70;1.00;;;;;;5101630;28;20959;-61
2023/03/04 04:01:40;;;;;;;13.32;3.90;;;4.80;1.00;;;;;;5101308;28;20935;-61
2023/03/04 04:04:06;;;;;;;15.07;3.75;;;4.70;1.00;;;;;;5099379;28;20803;-61
2023/03/04 04:06:33;;;;;;;15.10;3.75;;;4.90;1.00;;;;;;5100961;28;20497;-62
2023/03/04 04:09:00;;;;;;;15.10;4.07;;;4.90;1.00;;;;;;5105767;28;20882;-60
2023/03/04 04:11:28;;;;;;;12.38;3.55;;;5.00;1.00;;;;;;5099905;28;20826;-62
2023/03/04 04:13:54;;;;;;;18.70;4.55;;;4.90;1.00;;;;;;5098615;28;20506;-61
2023/03/04 04:16:21;;;;;;;14.23;4.13;;;4.80;1.00;;;;;;5101683;28;20412;-62
2023/03/04 04:18:48;;;;;;;14.45;3.80;;;4.90;1.00;;;;;;5100625;28;20421;-62
2023/03/04 04:21:15;;;;;;;18.58;4.10;;;4.90;1.00;;;;;;5099250;28;20483;-61
2023/03/04 04:23:41;;;;;;;14.70;4.03;;;4.90;1.00;;;;;;5102000;28;20412;-62
2023/03/04 04:26:08;;;;;;;18.00;4.35;;;4.90;1.00;;;;;;5102147;28;20421;-61
2023/03/04 04:28:36;;;;;;;16.50;4.35;;;4.80;1.00;;;;;;5102183;28;20457;-61
2023/03/04 04:31:07;;;;;;;15.98;4.30;;;4.70;1.00;;;;;;5103048;28;20418;-62
2023/03/04 04:33:33;;;;;;;17.23;4.33;;;4.80;1.00;;;;;;5101596;28;20823;-58
2023/03/04 04:36:02;;;;;;;15.27;4.47;;;4.70;1.00;;;;;;5102095;28;20423;-61
2023/03/04 04:38:29;;;;;;;15.35;4.50;;;4.80;1.00;;;;;;5101827;28;20420;-60
2023/03/04 04:40:57;;;;;;;13.63;4.20;;;4.90;1.00;;;;;;5099778;28;20417;-61
2023/03/04 04:43:24;;;;;;;17.57;6.00;;;4.80;1.00;;;;;;5095717;28;20901;-62
2023/03/04 04:45:52;;;;;;;15.00;5.45;;;4.80;1.00;;;;;;5101859;28;20414;-62
2023/03/04 04:48:19;;;;;;;17.10;4.63;;;4.80;1.00;;;;;;5099870;28;21089;-60
2023/03/04 04:50:45;;;;;;;16.00;4.20;;;4.60;1.00;;;;;;5101849;28;20429;-61
2023/03/04 04:53:13;;;;;;;13.45;4.35;;;4.70;1.00;;;;;;5100083;28;20841;-60
2023/03/04 04:55:40;;;;;;;18.73;4.30;;;4.80;1.00;;;;;;5099334;28;20492;-61
2023/03/04 04:58:06;;;;;;;16.85;3.55;;;4.70;1.00;;;;;;5095434;28;20741;-62
2023/03/04 05:00:33;;;;;;;12.88;3.28;;;4.80;1.00;;;;;;5099523;28;21093;-61
2023/03/04 05:03:01;;;;;;;11.27;3.45;;;4.80;1.00;;;;;;5101225;28;20938;-61
2023/03/04 05:05:28;;;;;;;12.75;3.65;;;4.90;1.00;;;;;;5101924;28;20404;-61
2023/03/04 05:07:55;;;;;;;10.23;3.28;;;4.80;1.00;;;;;;5104738;28;20457;-62
2023/03/04 05:10:21;;;;;;;14.47;3.10;;;4.70;1.00;;;;;;5107021;28;20405;-61
2023/03/04 05:12:48;;;;;;;17.20;3.63;;;4.80;1.00;;;;;;5105502;28;20438;-61
2023/03/04 05:15:15;;;;;;;10.00;3.03;;;4.80;1.00;;;;;;5104230;28;20418;-61
2023/03/04 05:17:42;;;;;;;12.77;3.30;;;4.80;1.00;;;;;;5115368;28;20408;-61
2023/03/04 05:20:11;;;;;;;12.18;3.25;;;4.80;1.00;;;;;;5118037;28;20424;-61
2023/03/04 05:22:38;;;;;;;12.98;3.80;;;4.80;1.00;;;;;;5103517;28;20414;-61
2023/03/04 05:25:05;;;;;;;13.65;3.55;;;4.90;1.00;;;;;;5102888;28;20409;-61
2023/03/04 05:27:32;;;;;;;16.80;3.95;;;4.70;1.00;;;;;;5104951;28;20442;-61
2023/03/04 05:29:59;;;;;;;12.70;3.80;;;4.70;1.00;;;;;;5104017;28;20405;-63
2023/03/04 05:32:26;;;;;;;11.45;3.22;;;4.70;1.00;;;;;;5102479;28;20410;-61
2023/03/04 05:34:53;;;;;;;13.40;3.50;;;4.70;1.00;;;;;;5104099;28;20457;-61
2023/03/04 05:37:21;;;;;;;12.48;3.28;;;4.70;1.00;;;;;;5104816;28;20409;-61
2023/03/04 05:39:47;;;;;;;16.25;3.22;;;4.60;1.00;;;;;;5098322;28;20419;-62
2023/03/04 05:42:14;;;;;;;12.13;3.15;;;4.70;1.00;;;;;;5102357;28;20419;-62
2023/03/04 05:44:41;;;;;;;12.95;3.25;;;4.70;1.00;;;;;;5104859;28;20412;-62
2023/03/04 05:47:07;;;;;;;17.17;3.83;;;4.70;1.00;;;;;;5102909;28;20459;-62
2023/03/04 05:49:34;;;;;;;15.52;3.20;;;4.80;1.00;;;;;;5102118;28;20405;-63
2023/03/04 05:52:01;;;;;;;17.45;3.47;;;4.80;1.00;;;;;;5098229;28;20825;-62
2023/03/04 05:54:29;;;;;;;12.77;3.72;;;4.70;1.00;;;;;;5103085;28;20557;-62
2023/03/04 05:56:56;;;;;;;15.80;3.25;;;4.70;1.00;;;;;;5104445;28;20952;-62
2023/03/04 05:59:23;;;;;;;12.52;2.83;;;4.60;1.00;;;;;;5102775;28;20541;-63
2023/03/04 06:01:49;;;;;;;14.27;3.53;;;4.80;1.00;;;;;;5102273;28;20409;-61
2023/03/04 06:04:16;;;;;;;12.77;3.63;;;4.80;1.00;;;;;;5098440;28;20439;-60
2023/03/04 06:06:45;;;;;;;12.23;3.28;;;4.90;1.00;;;;;;5102483;28;20436;-62
2023/03/04 06:09:12;;;;;;;14.40;3.83;;;4.80;1.00;;;;;;5104224;28;20460;-63
2023/03/04 06:11:40;;;;;;;12.52;3.58;;;4.90;1.00;;;;;;5103078;28;20432;-62
2023/03/04 06:14:07;;;;;;;13.73;3.95;;;4.90;1.00;;;;;;5098646;28;20425;-62
2023/03/04 06:16:34;;;;;;;11.23;3.83;;;4.90;1.00;;;;;;5103273;28;20412;-62
2023/03/04 06:19:00;;;;;;;15.23;4.57;;;4.90;1.00;;;;;;5102682;28;20950;-62
2023/03/04 06:21:27;;;;;;;13.63;4.18;;;4.80;1.00;;;;;;5101164;28;20897;-62
2023/03/04 06:23:54;;;;;;;13.15;4.10;;;4.90;1.00;;;;;;5103001;28;20420;-62
2023/03/04 06:26:20;;;;;;;13.98;4.10;;;4.90;1.00;;;;;;5104637;28;20453;-61
2023/03/04 06:28:48;;;;;;;12.93;4.40;;;4.90;1.00;;;;;;5103420;28;20431;-62
2023/03/04 06:31:15;;;;;;;12.98;4.00;;;4.90;1.00;;;;;;5103464;28;20408;-62
2023/03/04 06:33:42;;;;;;;13.98;4.00;;;4.90;1.00;;;;;;5101316;28;20414;-62
2023/03/04 06:36:09;;;;;;;14.52;3.85;;;4.80;1.00;;;;;;5101831;28;20412;-62
2023/03/04 06:38:35;;;;;;;10.90;3.53;;;4.80;1.00;;;;;;5103682;28;20415;-62
2023/03/04 06:41:07;;;;;;;12.77;3.83;;;4.80;1.00;;;;;;5101860;28;20406;-62
2023/03/04 06:43:34;;;;;;;13.68;3.45;;;4.80;1.00;;;;;;5102247;28;20414;-61
2023/03/04 06:46:02;;;;;;;15.40;4.07;;;4.80;1.00;;;;;;5101409;28;20475;-62
2023/03/04 06:48:29;;;;;;;12.07;3.50;;;4.90;1.00;;;;;;5101092;28;20811;-61
2023/03/04 06:50:55;;;;;;;14.15;3.47;;;4.80;1.00;;;;;;5097132;28;20401;-62
2023/03/04 06:53:22;;;;;;;10.88;3.20;;;4.90;1.00;;;;;;5101696;28;20494;-61
2023/03/04 06:55:49;;;;;;;12.30;3.20;;;4.90;1.00;;;;;;5103032;28;20886;-61
2023/03/04 06:58:16;;;;;;;11.70;3.20;;;4.90;1.00;;;;;;5101376;28;20421;-59
2023/03/04 07:00:43;;;;;;;13.55;3.42;;;5.00;1.00;;;;;;5100540;28;20432;-62
2023/03/04 07:03:12;;;;;;;12.20;3.20;;;4.90;1.00;;;;;;5097140;28;20410;-62
2023/03/04 07:05:39;;;;;;;11.73;3.60;;;4.90;1.00;;;;;;5101492;28;20440;-62
2023/03/04 07:08:06;;;;;;;12.65;3.08;;;4.90;1.00;;;;;;5103307;28;20420;-62
2023/03/04 07:10:33;;;;;;;11.95;3.55;;;5.00;1.00;;;;;;5101637;28;20413;-62
2023/03/04 07:13:00;;;;;;;11.05;3.60;;;4.90;1.00;;;;;;5100757;28;20947;-62
2023/03/04 07:15:26;;;;;;;10.52;3.88;;;4.90;1.00;;;;;;5100420;28;20418;-62
2023/03/04 07:17:53;;;;;;;13.20;4.43;;;5.00;1.00;;;;;;5100598;28;20406;-62
2023/03/04 07:20:21;;;;;;;13.23;4.35;;;5.00;1.00;;;;;;5103096;28;20450;-62
2023/03/04 07:22:48;;;;;;;13.30;3.58;;;5.10;1.00;;;;;;5101491;28;20846;-62
2023/03/04 07:25:16;;;;;;;10.40;2.78;;;5.20;1.00;;;;;;5102698;28;20412;-62
2023/03/04 07:27:43;;;;;;;11.57;3.22;;;5.00;1.00;;;;;;5100997;28;20508;-61
2023/03/04 07:30:11;;;;;;;11.33;3.83;;;5.00;1.00;;;;;;5099464;28;20410;-62
2023/03/04 07:32:38;;;;;;;9.60;3.33;;;5.00;1.00;;;;;;5096411;28;20893;-61
2023/03/04 07:35:05;;;;;;;10.43;3.42;;;5.00;1.00;;;;;;5101243;28;20483;-62
2023/03/04 07:37:33;;;;;;;9.25;2.83;;;5.00;1.00;;;;;;5102383;28;20412;-61
2023/03/04 07:40:00;;;;;;;9.88;3.17;;;5.00;1.00;;;;;;5100952;28;20428;-61
2023/03/04 07:42:26;;;;;;;12.05;3.60;;;5.00;1.00;;;;;;5099625;28;20417;-62
2023/03/04 07:44:54;;;;;;;10.38;3.67;;;5.00;1.00;;;;;;5101462;28;20404;-61
2023/03/04 07:47:21;;;;;;;12.13;3.78;;;5.00;1.00;;;;;;5101797;28;20817;-62
2023/03/04 07:49:47;;;;;;;11.15;3.80;;;5.10;1.00;;;;;;5099965;28;20405;-61
2023/03/04 07:52:14;;;;;;;10.38;3.22;;;5.20;1.00;;;;;;5099795;28;20414;-61
2023/03/04 07:54:42;;;;;;;12.68;3.30;;;5.20;1.00;;;;;;5099739;28;20410;-62
2023/03/04 07:57:08;;;;;;;14.15;3.85;;;5.00;1.00;;;;;;5099789;28;20463;-62
2023/03/04 07:59:35;;;;;;;12.88;3.75;;;5.00;1.00;;;;;;5100048;28;20463;-63
2023/03/04 08:02:02;;;;;;;13.48;4.13;;;5.10;1.00;;;;;;5102368;28;20411;-62
2023/03/04 08:04:28;;;;;;;11.77;4.33;;;5.10;1.00;;;;;;5101064;28;20487;-62
2023/03/04 08:06:55;;;;;;;12.30;4.10;;;5.20;1.00;;;;;;5099849;28;20414;-63
2023/03/04 08:09:22;;;;;;;11.57;4.70;;;5.20;1.00;;;;;;5102044;28;20469;-62
2023/03/04 08:11:50;;;;;;;14.52;4.10;;;5.30;16.40;;;;;;5101970;28;20946;-63
2023/03/04 08:14:17;;;;;;;10.80;3.53;;;5.40;11.20;;;;;;5099434;28;20463;-62
2023/03/04 08:16:43;;;;;;;10.77;3.67;;;5.50;1.00;;;;;;5102088;28;20424;-62
2023/03/04 08:19:11;;;;;;;13.30;3.78;;;5.50;1.00;;;;;;5103922;28;20412;-63
2023/03/04 08:21:38;;;;;;;11.77;3.60;;;5.60;1.00;;;;;;5101721;28;20446;-63
2023/03/04 08:24:07;;;;;;;13.95;3.45;;;5.80;1.00;;;;;;5101882;28;20464;-61
2023/03/04 08:26:37;;;;;;;10.35;3.65;;;5.90;1.00;;;;;;5099611;28;20420;-63
2023/03/04 08:29:06;;;;;;;13.00;4.03;;;5.80;1.00;;;;;;5111003;28;20431;-63
2023/03/04 08:31:33;;;;;;;15.23;4.43;;;5.80;1.00;;;;;;5101519;28;20953;-60
2023/03/04 08:33:59;;;;;;;10.43;3.85;;;5.80;1.00;;;;;;5100425;28;20406;-62
2023/03/04 08:36:26;;;;;;;15.30;4.03;;;5.80;1.00;;;;;;5102019;28;20477;-63
2023/03/04 08:38:53;;;;;;;9.63;3.83;;;5.70;1.00;;;;;;5100078;28;20861;-62
2023/03/04 08:41:20;;;;;;;14.53;3.53;;;5.70;1.00;;;;;;5099803;28;20490;-62
2023/03/04 08:43:46;;;;;;;13.38;3.67;;;5.70;1.00;;;;;;5099425;28;20439;-63
2023/03/04 08:46:14;;;;;;;9.68;3.42;;;5.90;1.00;;;;;;5105909;28;20532;-62
2023/03/04 08:48:41;;;;;;;11.35;4.18;;;6.00;1.00;;;;;;5105668;28;20408;-62
2023/03/04 08:51:09;;;;;;;11.93;4.23;;;6.00;1.00;;;;;;5104320;28;20512;-63
2023/03/04 08:53:37;;;;;;;10.48;4.95;;;6.20;1.00;;;;;;5106716;28;20461;-63
2023/03/04 08:56:04;;;;;;;13.63;5.13;;;6.10;1.00;;;;;;5103925;28;20479;-63
2023/03/04 08:58:31;;;;;;;14.57;5.60;;;6.10;1.00;;;;;;5103634;28;20410;-63
2023/03/04 09:00:59;;;;;;;11.45;5.50;;;6.20;1.00;;;;;;5105562;28;20420;-62
2023/03/04 09:03:28;;;;;;;12.23;4.40;;;6.10;1.00;;;;;;5104717;28;20460;-63
2023/03/04 09:05:55;;;;;;;13.45;6.22;;;6.30;1.00;;;;;;5103121;28;20410;-62
2023/03/04 09:08:21;;;;;;;10.57;4.72;;;6.10;1.00;;;;;;5104891;28;20409;-62
2023/03/04 09:10:53;;;;;;;10.10;4.60;;;6.30;1.00;;;;;;5105336;28;20944;-62
2023/03/04 09:13:21;;;;;;;10.65;4.93;;;6.20;1.00;;;;;;5102744;28;20921;-62
2023/03/04 09:15:50;;;;;;;12.95;4.97;;;6.40;1.00;;;;;;5102451;28;20814;-62
2023/03/04 09:18:18;;;;;;;10.07;4.30;;;6.40;1.00;;;;;;5104391;28;20461;-62
2023/03/04 09:20:46;;;;;;;9.35;4.97;;;6.30;1.00;;;;;;5105084;28;20420;-62
2023/03/04 09:23:13;;;;;;;7.85;5.28;;;6.30;1.00;;;;;;5104698;28;21030;-63
2023/03/04 09:25:41;;;;;;;9.50;5.22;;;6.20;3.60;;;;;;5101032;28;20475;-61
2023/03/04 09:28:08;;;;;;;11.07;4.93;;;5.90;30.40;;;;;;5104808;28;20932;-62
2023/03/04 09:30:35;;;;;;;10.65;6.10;;;5.80;60.10;;;;;;5103493;28;20463;-62
2023/03/04 09:33:02;;;;;;;13.25;7.07;;;5.70;89.70;;;;;;5102288;28;20413;-62
2023/03/04 09:35:29;;;;;;;14.20;8.60;;;5.60;99.90;;;;;;5104606;28;20416;-62
2023/03/04 09:37:58;;;;;;;12.20;8.60;;;5.60;99.90;;;;;;5104329;28;20442;-62
2023/03/04 09:40:28;;;;;;;11.05;7.90;;;5.90;99.90;;;;;;5104668;28;20464;-62
2023/03/04 09:42:57;;;;;;;13.80;7.97;;;5.90;99.90;;;;;;5103469;28;20408;-62
2023/03/04 09:45:29;;;;;;;13.77;7.00;;;6.20;99.90;;;;;;5098028;28;20889;-62
2023/03/04 09:47:57;;;;;;;11.38;5.50;;;6.30;92.60;;;;;;5102220;28;20470;-63
2023/03/04 09:50:25;;;;;;;11.45;5.82;;;6.30;72.90;;;;;;5098743;28;20893;-62
2023/03/04 09:53:06;;;;;;;9.82;4.97;;;6.30;77.70;;;;;;5102154;28;20456;-63
2023/03/04 09:55:37;;;;;;;10.95;6.30;;;6.30;90.40;;;;;;5101393;28;20416;-62
2023/03/04 09:58:15;;;;;;;10.82;6.22;;;6.00;99.90;;;;;;5102228;28;20414;-60
2023/03/04 10:00:45;;;;;;;11.32;6.70;;;5.80;99.90;;;;;;5101615;28;20426;-60
2023/03/04 10:03:18;;;;;;;13.57;8.23;;;5.80;99.90;;;;;;5103713;28;20477;-60
2023/03/04 10:05:51;;;;;;;16.17;8.93;;;6.00;99.90;;;;;;5100440;28;20465;-60
2023/03/04 10:08:38;;;;;;;16.47;8.90;;;6.00;99.90;;;;;;5104232;28;20471;-60
2023/03/04 10:11:11;;;;;;;17.10;9.35;;;6.10;99.90;;;;;;5102977;28;20412;-60
2023/03/04 10:13:45;;;;;;;18.70;10.23;;;6.20;99.90;;;;;;5099848;28;20437;-60
2023/03/04 10:16:18;;;;;;;16.75;10.90;;;6.20;99.90;;;;;;5101470;28;20414;-60
2023/03/04 10:18:51;;;;;;;18.25;10.98;;;6.10;99.90;;;;;;5090024;28;20605;-62
2023/03/04 10:21:23;;;;;;;16.77;11.13;;;6.10;99.90;;;;;;5101602;28;20425;-62
2023/03/04 10:23:53;;;;;;;17.98;9.80;;;6.10;99.90;;;;;;5096335;28;20422;-62
2023/03/04 10:26:21;;;;;;;15.10;9.20;;;6.20;99.90;;;;;;5094763;28;20426;-62
2023/03/04 10:28:49;;;;;;;14.27;8.65;;;6.10;99.90;;;;;;5095143;28;20423;-64
2023/03/04 10:31:22;;;;;;;15.52;8.90;;;6.10;99.90;;;;;;5098721;28;20413;-63
2023/03/04 10:33:49;;;;;;;16.93;8.87;;;5.90;99.90;;;;;;5100560;28;20547;-63
2023/03/04 10:36:34;;;;;;;14.95;9.27;;;6.00;99.90;;;;;;5102558;28;20763;-63
2023/03/04 10:39:05;;;;;;;14.43;8.98;;;6.00;99.90;;;;;;5099493;28;20892;-62
2023/03/04 10:41:32;;;;;;;15.75;10.00;;;6.00;99.90;;;;;;5100653;28;20433;-62
2023/03/04 10:44:02;;;;;;;14.45;9.05;;;6.20;99.90;;;;;;5101529;28;20887;-63
2023/03/04 10:46:30;;;;;;;16.35;9.05;;;6.40;99.90;;;;;;5102887;28;20465;-63
2023/03/04 10:48:57;;;;;;;12.15;9.32;;;6.30;99.90;;;;;;5097961;28;20433;-63
2023/03/04 10:51:27;;;;;;;12.73;7.60;;;6.50;99.90;;;;;;5103098;28;20412;-64
2023/03/04 10:53:58;;;;;;;12.67;7.70;;;6.60;99.90;;;;;;5101108;28;20931;-67
2023/03/04 10:56:37;;;;;;;12.97;7.13;;;6.50;99.90;;;;;;5100451;28;20480;-67
2023/03/04 10:59:31;;;;;;;10.57;6.43;;;6.60;99.90;;;;;;5100077;28;20417;-68
2023/03/04 11:01:58;;;;;;;10.60;6.72;;;6.80;99.90;;;;;;5100302;28;20428;-62
2023/03/04 11:04:27;;;;;;;10.95;6.65;;;6.70;99.90;;;;;;5100921;28;20424;-62
2023/03/04 11:06:54;;;;;;;11.43;6.63;;;6.60;99.90;;;;;;5102468;28;20911;-62
2023/03/04 11:09:24;;;;;;;9.00;5.85;;;6.60;99.90;;;;;;5100307;28;21389;-63
2023/03/04 11:11:55;;;;;;;11.95;6.55;;;6.60;99.90;;;;;;5099949;28;20769;-63
2023/03/04 11:14:27;;;;;;;14.75;7.20;;;6.30;99.90;;;;;;5100955;28;20414;-64
2023/03/04 11:16:56;;;;;;;12.00;7.22;;;6.20;99.90;;;;;;5098987;28;20420;-64
2023/03/04 11:19:28;;;;;;;10.88;6.82;;;6.10;99.90;;;;;;5101226;28;20435;-61
2023/03/04 11:21:57;;;;;;;10.95;6.35;;;6.20;99.90;;;;;;5096383;28;21019;-61
2023/03/04 11:24:28;;;;;;;10.25;6.20;;;6.30;99.90;;;;;;5100629;28;20425;-61
2023/03/04 11:27:02;;;;;;;9.85;5.20;;;6.30;99.90;;;;;;5099798;28;20905;-62
2023/03/04 11:29:33;;;;;;;10.38;5.15;;;6.30;99.90;;;;;;5099400;28;20905;-62
2023/03/04 11:32:06;;;;;;;9.15;5.38;;;6.30;99.90;;;;;;5100870;28;20844;-62
2023/03/04 11:34:40;;;;;;;8.13;4.97;;;6.40;99.90;;;;;;5102288;28;20897;-63
2023/03/04 11:37:13;;;;;;;10.07;4.70;;;6.50;99.90;;;;;;5098593;28;20416;-63
2023/03/04 11:39:46;;;;;;;8.10;5.18;;;6.70;99.90;;;;;;5098603;28;20402;-64
2023/03/04 11:42:23;;;;;;;7.68;5.18;;;6.60;99.90;;;;;;5112052;28;20415;-63
2023/03/04 11:44:50;;;;;;;9.23;5.40;;;6.80;99.90;;;;;;5101744;28;20413;-63
2023/03/04 11:47:36;;;;;;;8.82;4.90;;;6.80;99.90;;;;;;5102628;28;20420;-63
2023/03/04 11:50:22;;;;;;;8.30;4.70;;;6.90;99.90;;;;;;5101343;28;20810;-61
2023/03/04 11:53:09;;;;;;;5.87;4.57;;;6.90;99.90;;;;;;5095486;28;20421;-63
2023/03/04 11:55:43;;;;;;;8.40;4.22;;;7.00;99.90;;;;;;5094962;28;20406;-62
2023/03/04 11:58:33;;;;;;;6.22;3.90;;;7.20;99.90;;;;;;5097619;28;20410;-63
2023/03/04 12:01:06;;;;;;;4.88;3.90;;;7.30;99.90;;;;;;5089073;28;20422;-62
2023/03/04 12:04:02;;;;;;;5.80;3.85;;;7.30;73.10;;;;;;5099960;28;20521;-63
2023/03/04 12:06:42;;;;;;;5.82;3.53;;;7.30;92.00;;;;;;5095481;28;20418;-62
2023/03/04 12:09:22;;;;;;;9.30;3.85;;;7.20;80.50;;;;;;5096542;28;20420;-63
2023/03/04 12:11:57;;;;;;;8.38;4.32;;;7.30;88.00;;;;;;5092469;28;20426;-61
2023/03/04 12:14:31;;;;;;;7.38;4.65;;;7.30;72.80;;;;;;5097758;28;20408;-61
2023/03/04 12:17:22;;;;;;;7.15;5.07;;;7.10;78.00;;;;;;5097427;28;20417;-61
2023/03/04 12:20:18;;;;;;;8.57;5.97;;;7.10;93.80;;;;;;5100373;28;20458;-62
2023/03/04 12:22:51;;;;;;;6.95;5.70;;;7.10;93.20;;;;;;5097447;28;20436;-62
2023/03/04 12:25:33;;;;;;;8.60;6.30;;;7.20;82.90;;;;;;5098695;28;20410;-63
2023/03/04 12:28:12;;;;;;;8.75;5.75;;;7.10;80.70;;;;;;5098676;28;20951;-63
2023/03/04 12:30:49;;;;;;;7.35;5.35;;;7.10;92.40;;;;;;5094233;28;20407;-65
2023/03/04 12:33:24;;;;;;;6.63;4.82;;;7.20;90.10;;;;;;5098697;28;20512;-63
2023/03/04 12:36:00;;;;;;;8.00;4.78;;;7.10;78.00;;;;;;5094319;28;20405;-63
2023/03/04 12:38:48;;;;;;;7.35;4.30;;;7.20;86.50;;;;;;5101333;28;20769;-63
2023/03/04 12:41:30;;;;;;;6.97;4.53;;;7.10;99.90;;;;;;5095667;28;20479;-62
2023/03/04 12:44:05;;;;;;;7.47;4.30;;;7.00;99.90;;;;;;5092730;28;20465;-61
2023/03/04 12:46:42;;;;;;;6.07;4.25;;;7.10;99.90;;;;;;5100974;28;20753;-65
2023/03/04 12:49:25;;;;;;;7.68;4.28;;;7.40;99.90;;;;;;5100105;28;20436;-63
2023/03/04 12:52:03;;;;;;;8.45;4.32;;;7.50;93.00;;;;;;5099635;28;20397;-63
2023/03/04 12:54:34;;;;;;;8.73;4.70;;;7.60;74.60;;;;;;5097366;28;20402;-64
2023/03/04 12:57:04;;;;;;;5.75;3.92;;;7.40;60.60;;;;;;5097220;28;20412;-63
2023/03/04 12:59:36;;;;;;;7.18;5.10;;;7.30;56.00;;;;;;5098623;28;20412;-62
2023/03/04 13:02:22;;;;;;;7.32;5.80;;;7.20;61.90;;;;;;5098536;28;20795;-62
2023/03/04 13:04:58;;;;;;;8.23;6.00;;;7.30;61.90;;;;;;5097827;28;20415;-62
2023/03/04 13:07:39;;;;;;;6.45;5.07;;;7.10;77.40;;;;;;5101291;28;20419;-63